Time;durP1;ratioP1;P1;durP2;ratioP2;P2;SDS_P1;SDS_P2;PMS_P1;PMS_P2;Temp;Humidity;BMP_temperature;BMP_pressure;BME280_temperature;BME280_humidity;BME280_pressure;Samples;Min_cycle;Max_cycle;Signal;HPM_P1;HPM_P2
2023/09/13 00:01:55;;;;;;;5.10;3.20;;;;;;;;;;5001020;28;20498;-68
2023/09/13 00:04:21;;;;;;;3.42;2.85;;;;;;;;;;5001499;28;20053;-68
2023/09/13 00:06:47;;;;;;;2.88;2.55;;;;;;;;;;5001185;28;20065;-69
2023/09/13 00:09:13;;;;;;;6.40;3.05;;;;;;;;;;5000267;28;20038;-68
2023/09/13 00:11:38;;;;;;;6.68;3.10;;;;;;;;;;4983762;28;20461;-69
2023/09/13 00:14:04;;;;;;;5.82;3.05;;;;;;;;;;4999303;28;20046;-69
2023/09/13 00:16:29;;;;;;;7.28;3.50;;;;;;;;;;5001311;28;20482;-69
2023/09/13 00:18:55;;;;;;;3.47;2.95;;;;;;;;;;5000595;28;20054;-69
2023/09/13 00:21:20;;;;;;;2.97;2.42;;;;;;;;;;4999984;28;20041;-69
2023/09/13 00:23:46;;;;;;;5.82;3.47;;;;;;;;;;5000941;28;20979;-69
2023/09/13 00:26:13;;;;;;;8.60;3.20;;;;;;;;;;5000753;28;20049;-71
2023/09/13 00:28:40;;;;;;;3.83;3.08;;;;;;;;;;5015609;28;20042;-69
2023/09/13 00:31:09;;;;;;;4.13;2.90;;;;;;;;;;4999758;28;20049;-69
2023/09/13 00:33:34;;;;;;;5.30;2.90;;;;;;;;;;5015754;28;20065;-70
2023/09/13 00:36:00;;;;;;;3.55;2.85;;;;;;;;;;5000485;28;20046;-68
2023/09/13 00:38:26;;;;;;;4.35;3.47;;;;;;;;;;5001014;28;20082;-68
2023/09/13 00:40:52;;;;;;;4.35;3.35;;;;;;;;;;4999045;28;20100;-68
2023/09/13 00:43:17;;;;;;;5.47;3.17;;;;;;;;;;5014558;28;20046;-69
2023/09/13 00:45:44;;;;;;;5.85;3.60;;;;;;;;;;4999290;28;20137;-67
2023/09/13 00:48:09;;;;;;;3.47;3.17;;;;;;;;;;4998201;28;20049;-68
2023/09/13 00:50:36;;;;;;;4.97;3.75;;;;;;;;;;4999324;28;20053;-68
2023/09/13 00:53:03;;;;;;;7.18;3.50;;;;;;;;;;4998225;28;20058;-74
2023/09/13 00:55:31;;;;;;;4.68;3.83;;;;;;;;;;4998573;28;20095;-68
2023/09/13 00:57:57;;;;;;;5.25;3.50;;;;;;;;;;4998722;28;20042;-68
2023/09/13 01:00:24;;;;;;;6.50;3.70;;;;;;;;;;4998705;28;20049;-68
2023/09/13 01:02:50;;;;;;;4.10;3.70;;;;;;;;;;4998531;28;20108;-68
2023/09/13 01:05:16;;;;;;;9.13;4.28;;;;;;;;;;4998803;28;20564;-69
2023/09/13 01:07:42;;;;;;;6.95;4.70;;;;;;;;;;4998595;28;20050;-68
2023/09/13 01:10:09;;;;;;;8.90;5.18;;;;;;;;;;5000353;28;20088;-68
2023/09/13 01:12:35;;;;;;;5.80;5.03;;;;;;;;;;5016368;28;20060;-68
2023/09/13 01:15:02;;;;;;;6.07;4.32;;;;;;;;;;5000120;28;20057;-68
2023/09/13 01:18:01;;;;;;;4.70;4.13;;;;;;;;;;4999119;28;20044;-68
2023/09/13 01:21:05;;;;;;;4.72;4.20;;;;;;;;;;5000501;28;20049;-68
2023/09/13 01:24:03;;;;;;;5.10;3.50;;;;;;;;;;4999992;28;20045;-68
2023/09/13 01:27:09;;;;;;;11.98;3.13;;;;;;;;;;5014648;28;21050;-68
2023/09/13 01:29:35;;;;;;;4.45;3.17;;;;;;;;;;4996323;28;20125;-68
2023/09/13 01:32:00;;;;;;;5.97;3.38;;;;;;;;;;4997126;28;20410;-68
2023/09/13 01:34:26;;;;;;;6.05;3.78;;;;;;;;;;4996431;28;20061;-68
2023/09/13 01:36:54;;;;;;;3.30;2.85;;;;;;;;;;5013020;28;20136;-68
2023/09/13 01:39:19;;;;;;;5.13;3.90;;;;;;;;;;4998311;28;20038;-68
2023/09/13 01:42:05;;;;;;;5.85;4.28;;;;;;;;;;4999730;28;20105;-68
2023/09/13 01:44:31;;;;;;;5.72;4.50;;;;;;;;;;4999932;28;20442;-68
2023/09/13 01:46:59;;;;;;;7.78;4.70;;;;;;;;;;4997641;28;20056;-68
2023/09/13 01:49:26;;;;;;;7.28;5.05;;;;;;;;;;4998103;28;20111;-68
2023/09/13 01:51:52;;;;;;;6.60;5.15;;;;;;;;;;4997542;28;20556;-68
2023/09/13 01:54:18;;;;;;;5.75;4.43;;;;;;;;;;5014431;28;20064;-68
2023/09/13 01:56:44;;;;;;;5.90;4.43;;;;;;;;;;4999099;28;20100;-68
2023/09/13 01:59:09;;;;;;;5.07;3.97;;;;;;;;;;4979475;28;20050;-68
2023/09/13 02:01:35;;;;;;;9.10;3.78;;;;;;;;;;5013982;28;20053;-68
2023/09/13 02:04:00;;;;;;;7.47;3.42;;;;;;;;;;4997327;28;20046;-68
2023/09/13 02:06:26;;;;;;;4.55;3.33;;;;;;;;;;5013990;28;20053;-68
2023/09/13 02:08:51;;;;;;;4.75;3.03;;;;;;;;;;4997992;28;20053;-68
2023/09/13 02:11:17;;;;;;;4.88;3.80;;;;;;;;;;4995458;28;20109;-68
2023/09/13 02:13:42;;;;;;;6.22;3.75;;;;;;;;;;5014043;28;20049;-68
2023/09/13 02:16:07;;;;;;;7.30;3.70;;;;;;;;;;4996543;28;20088;-68
2023/09/13 02:18:33;;;;;;;4.28;3.00;;;;;;;;;;4994403;28;20089;-68
2023/09/13 02:20:58;;;;;;;3.53;2.70;;;;;;;;;;4992904;28;20502;-68
2023/09/13 02:23:24;;;;;;;4.78;3.03;;;;;;;;;;4977294;28;20050;-68
2023/09/13 02:25:49;;;;;;;3.72;2.85;;;;;;;;;;4978972;28;20046;-68
2023/09/13 02:28:15;;;;;;;5.05;2.47;;;;;;;;;;4988362;28;20541;-69
2023/09/13 02:30:41;;;;;;;3.67;2.65;;;;;;;;;;4993611;28;20399;-68
2023/09/13 02:33:06;;;;;;;5.15;2.53;;;;;;;;;;4992371;28;20058;-69
2023/09/13 02:35:33;;;;;;;2.92;2.33;;;;;;;;;;4979213;28;20046;-68
2023/09/13 02:37:59;;;;;;;3.53;2.50;;;;;;;;;;4978958;28;20057;-68
2023/09/13 02:40:25;;;;;;;5.45;2.60;;;;;;;;;;4993598;28;20157;-68
2023/09/13 02:42:50;;;;;;;2.65;2.45;;;;;;;;;;4993480;28;20088;-68
2023/09/13 02:45:16;;;;;;;2.55;2.35;;;;;;;;;;4991836;28;20132;-68
2023/09/13 02:47:43;;;;;;;5.82;2.30;;;;;;;;;;4977848;28;20410;-68
2023/09/13 02:50:09;;;;;;;2.33;1.85;;;;;;;;;;4985918;28;20521;-68
2023/09/13 02:52:35;;;;;;;2.20;2.00;;;;;;;;;;4998582;28;20148;-68
2023/09/13 02:55:01;;;;;;;4.00;2.70;;;;;;;;;;4979949;28;21018;-68
2023/09/13 02:57:27;;;;;;;2.22;2.03;;;;;;;;;;4977192;28;20635;-68
2023/09/13 02:59:53;;;;;;;3.72;2.45;;;;;;;;;;4971170;28;20172;-68
2023/09/13 03:02:18;;;;;;;2.40;2.20;;;;;;;;;;5012631;28;20561;-68
2023/09/13 03:04:44;;;;;;;3.10;2.58;;;;;;;;;;4996868;28;20050;-68
2023/09/13 03:07:10;;;;;;;3.45;2.50;;;;;;;;;;5011346;28;20049;-69
2023/09/13 03:09:36;;;;;;;6.97;2.38;;;;;;;;;;4997100;28;20050;-69
2023/09/13 03:12:03;;;;;;;4.70;2.53;;;;;;;;;;4997411;28;20041;-69
2023/09/13 03:14:30;;;;;;;3.65;2.17;;;;;;;;;;5013315;28;20111;-69
2023/09/13 03:16:55;;;;;;;2.35;2.15;;;;;;;;;;5012245;28;20522;-69
2023/09/13 03:19:21;;;;;;;2.70;2.30;;;;;;;;;;4995848;28;20084;-69
2023/09/13 03:21:47;;;;;;;8.93;2.40;;;;;;;;;;4996713;28;20037;-69
2023/09/13 03:24:12;;;;;;;4.75;2.60;;;;;;;;;;4996400;28;20041;-69
2023/09/13 03:26:38;;;;;;;3.35;2.15;;;;;;;;;;4995517;28;20046;-68
2023/09/13 03:29:04;;;;;;;6.80;2.20;;;;;;;;;;4994596;28;20042;-69
2023/09/13 03:31:36;;;;;;;2.35;2.10;;;;;;;;;;4997908;28;20046;-69
2023/09/13 03:34:04;;;;;;;2.97;2.60;;;;;;;;;;4999421;28;20546;-69
2023/09/13 03:36:32;;;;;;;2.20;2.00;;;;;;;;;;5000467;28;20046;-68
2023/09/13 03:38:59;;;;;;;2.75;2.50;;;;;;;;;;4999968;28;20176;-68
2023/09/13 03:41:27;;;;;;;4.10;2.70;;;;;;;;;;4998654;28;20056;-68
2023/09/13 03:43:52;;;;;;;3.08;2.50;;;;;;;;;;5016618;28;20045;-70
2023/09/13 03:46:19;;;;;;;3.45;2.60;;;;;;;;;;4999220;28;20149;-70
2023/09/13 03:48:46;;;;;;;2.67;2.47;;;;;;;;;;4995997;28;20057;-68
2023/09/13 03:51:12;;;;;;;4.90;2.63;;;;;;;;;;4996277;28;20034;-69
2023/09/13 03:53:38;;;;;;;6.95;2.40;;;;;;;;;;5000348;28;20046;-67
2023/09/13 03:56:05;;;;;;;8.40;2.55;;;;;;;;;;5014912;28;20659;-68
2023/09/13 03:58:35;;;;;;;3.45;2.63;;;;;;;;;;4998787;28;20042;-68
2023/09/13 04:01:02;;;;;;;3.53;2.47;;;;;;;;;;4997891;28;20426;-68
2023/09/13 04:03:28;;;;;;;7.18;2.78;;;;;;;;;;4998793;28;20046;-71
2023/09/13 04:05:53;;;;;;;3.95;2.58;;;;;;;;;;4999223;28;20057;-68
2023/09/13 04:08:19;;;;;;;2.65;2.35;;;;;;;;;;4997063;28;20052;-68
2023/09/13 04:10:45;;;;;;;4.28;2.42;;;;;;;;;;4999061;28;20046;-67
2023/09/13 04:13:10;;;;;;;2.67;2.33;;;;;;;;;;5013671;28;20053;-70
2023/09/13 04:15:36;;;;;;;6.13;2.40;;;;;;;;;;4997250;28;20656;-70
2023/09/13 04:18:03;;;;;;;2.95;2.65;;;;;;;;;;4997613;28;20053;-68
2023/09/13 04:20:31;;;;;;;4.55;2.60;;;;;;;;;;4996061;28;20052;-70
2023/09/13 04:22:57;;;;;;;3.60;2.88;;;;;;;;;;4998264;28;20045;-70
2023/09/13 04:25:22;;;;;;;2.63;2.42;;;;;;;;;;4996928;28;20061;-70
2023/09/13 04:27:48;;;;;;;3.92;2.50;;;;;;;;;;4996466;28;20072;-70
2023/09/13 04:30:15;;;;;;;4.30;3.05;;;;;;;;;;5012528;28;20038;-70
2023/09/13 04:32:42;;;;;;;3.85;2.83;;;;;;;;;;5013715;28;20231;-70
2023/09/13 04:35:08;;;;;;;10.73;3.10;;;;;;;;;;4997254;28;20395;-70
2023/09/13 04:37:34;;;;;;;7.43;3.05;;;;;;;;;;4998445;28;20553;-70
2023/09/13 04:40:05;;;;;;;7.25;2.92;;;;;;;;;;4999109;28;20156;-67
2023/09/13 04:42:40;;;;;;;5.00;3.22;;;;;;;;;;5014829;28;20419;-70
2023/09/13 04:45:06;;;;;;;3.58;2.85;;;;;;;;;;4997229;28;20049;-68
2023/09/13 04:47:32;;;;;;;4.50;2.72;;;;;;;;;;4999278;28;20082;-67
2023/09/13 04:49:57;;;;;;;5.93;2.78;;;;;;;;;;4982703;28;20811;-70
2023/09/13 04:52:23;;;;;;;4.70;3.03;;;;;;;;;;4998657;28;20145;-69
2023/09/13 04:54:49;;;;;;;5.22;3.20;;;;;;;;;;4998995;28;20136;-69
2023/09/13 04:57:15;;;;;;;3.92;3.10;;;;;;;;;;4996812;28;20042;-69
2023/09/13 04:59:46;;;;;;;3.33;2.90;;;;;;;;;;5014718;28;20372;-68
2023/09/13 05:02:12;;;;;;;4.80;2.80;;;;;;;;;;4998011;28;20506;-68
2023/09/13 05:04:41;;;;;;;4.80;2.85;;;;;;;;;;5017789;28;20494;-71
2023/09/13 05:07:07;;;;;;;5.10;2.70;;;;;;;;;;5002198;28;20256;-71
2023/09/13 05:09:33;;;;;;;4.22;2.78;;;;;;;;;;5001989;28;20792;-71
2023/09/13 05:11:59;;;;;;;4.85;3.30;;;;;;;;;;5003715;28;20053;-71
2023/09/13 05:14:25;;;;;;;4.80;2.97;;;;;;;;;;5003056;28;20092;-71
2023/09/13 05:16:50;;;;;;;3.40;3.00;;;;;;;;;;5019125;28;20073;-71
2023/09/13 05:19:17;;;;;;;3.63;2.78;;;;;;;;;;5001990;28;20083;-71
2023/09/13 05:21:43;;;;;;;4.15;2.80;;;;;;;;;;5005231;28;20186;-71
2023/09/13 05:24:09;;;;;;;3.25;2.83;;;;;;;;;;5005674;28;20136;-71
2023/09/13 05:26:35;;;;;;;4.75;3.20;;;;;;;;;;5005774;28;20085;-71
2023/09/13 05:29:02;;;;;;;3.25;2.95;;;;;;;;;;5003942;28;20104;-71
2023/09/13 05:31:28;;;;;;;6.68;3.22;;;;;;;;;;5002722;28;20096;-71
2023/09/13 05:33:53;;;;;;;3.28;2.97;;;;;;;;;;5002801;28;20145;-71
2023/09/13 05:36:18;;;;;;;6.05;2.95;;;;;;;;;;5015855;28;20042;-72
2023/09/13 05:38:44;;;;;;;4.55;3.25;;;;;;;;;;5000244;28;20141;-69
2023/09/13 05:41:10;;;;;;;6.57;3.05;;;;;;;;;;4998269;28;20046;-71
2023/09/13 05:43:37;;;;;;;7.55;3.17;;;;;;;;;;4999138;28;20060;-70
2023/09/13 05:46:03;;;;;;;4.68;3.72;;;;;;;;;;4999524;28;20054;-71
2023/09/13 05:48:28;;;;;;;6.35;3.13;;;;;;;;;;4997417;28;20041;-71
2023/09/13 05:50:54;;;;;;;4.35;3.28;;;;;;;;;;4998867;28;20100;-71
2023/09/13 05:53:20;;;;;;;5.25;2.90;;;;;;;;;;4998856;28;20071;-72
2023/09/13 05:55:46;;;;;;;4.07;3.22;;;;;;;;;;5000334;28;20042;-71
2023/09/13 05:58:12;;;;;;;4.88;2.85;;;;;;;;;;5000928;28;20044;-71
2023/09/13 06:00:38;;;;;;;6.25;2.90;;;;;;;;;;4999369;28;20053;-71
2023/09/13 06:03:04;;;;;;;4.00;3.35;;;;;;;;;;4999107;28;20123;-72
2023/09/13 06:05:30;;;;;;;8.63;3.05;;;;;;;;;;4999145;28;20640;-71
2023/09/13 06:07:55;;;;;;;3.35;2.97;;;;;;;;;;4999577;28;20045;-71
2023/09/13 06:10:20;;;;;;;5.97;3.25;;;;;;;;;;4998907;28;20049;-71
2023/09/13 06:12:46;;;;;;;9.05;3.42;;;;;;;;;;4999332;28;20064;-71
2023/09/13 06:15:11;;;;;;;7.47;3.80;;;;;;;;;;4999060;28;20049;-71
2023/09/13 06:17:37;;;;;;;3.67;3.38;;;;;;;;;;4999104;28;20050;-71
2023/09/13 06:20:06;;;;;;;8.32;4.50;;;;;;;;;;4998022;28;20041;-71
2023/09/13 06:22:32;;;;;;;5.85;3.90;;;;;;;;;;5013128;28;20524;-71
2023/09/13 06:25:01;;;;;;;5.97;3.80;;;;;;;;;;4999570;28;20519;-71
2023/09/13 06:27:26;;;;;;;6.75;3.70;;;;;;;;;;5013379;28;20046;-71
2023/09/13 06:29:51;;;;;;;6.32;4.03;;;;;;;;;;5015140;28;20049;-72
2023/09/13 06:32:17;;;;;;;5.10;3.83;;;;;;;;;;4999250;28;20050;-72
2023/09/13 06:34:42;;;;;;;5.57;4.78;;;;;;;;;;5001023;28;20065;-72
2023/09/13 06:37:08;;;;;;;10.23;4.28;;;;;;;;;;5000731;28;20046;-72
2023/09/13 06:39:34;;;;;;;4.80;3.78;;;;;;;;;;5000085;28;20053;-71
2023/09/13 06:42:00;;;;;;;6.22;4.20;;;;;;;;;;4997619;28;20056;-71
2023/09/13 06:44:26;;;;;;;4.82;3.85;;;;;;;;;;4998324;28;20128;-70
2023/09/13 06:46:52;;;;;;;11.52;4.22;;;;;;;;;;4998901;28;20116;-71
2023/09/13 06:49:17;;;;;;;7.53;4.53;;;;;;;;;;4996603;28;20513;-69
2023/09/13 06:51:43;;;;;;;7.10;4.60;;;;;;;;;;4998049;28;20045;-71
2023/09/13 06:54:08;;;;;;;5.53;4.22;;;;;;;;;;4999085;28;20045;-71
2023/09/13 06:56:34;;;;;;;7.30;4.30;;;;;;;;;;4997225;28;20161;-70
2023/09/13 06:58:59;;;;;;;4.68;4.10;;;;;;;;;;4998912;28;20045;-70
2023/09/13 07:01:25;;;;;;;6.88;4.25;;;;;;;;;;4997461;28;20056;-70
2023/09/13 07:03:51;;;;;;;6.40;4.53;;;;;;;;;;4998526;28;20037;-71
2023/09/13 07:06:16;;;;;;;5.47;3.97;;;;;;;;;;5012180;28;20240;-71
2023/09/13 07:08:42;;;;;;;5.28;4.18;;;;;;;;;;4997352;28;20655;-71
2023/09/13 07:11:07;;;;;;;5.55;4.20;;;;;;;;;;4997729;28;20391;-70
2023/09/13 07:13:33;;;;;;;4.50;4.10;;;;;;;;;;5013218;28;20080;-72
2023/09/13 07:15:58;;;;;;;7.72;4.20;;;;;;;;;;4997920;28;20048;-70
2023/09/13 07:18:24;;;;;;;9.02;4.40;;;;;;;;;;4997230;28;20042;-70
2023/09/13 07:20:49;;;;;;;6.70;4.25;;;;;;;;;;4998712;28;20057;-71
2023/09/13 07:23:15;;;;;;;6.93;4.53;;;;;;;;;;4998098;28;20513;-71
2023/09/13 07:25:40;;;;;;;7.13;4.60;;;;;;;;;;4996619;28;20045;-70
2023/09/13 07:28:05;;;;;;;6.25;4.82;;;;;;;;;;4997208;28;20042;-71
2023/09/13 07:30:31;;;;;;;8.27;4.82;;;;;;;;;;4997102;28;20529;-71
2023/09/13 07:32:56;;;;;;;9.50;5.03;;;;;;;;;;4998297;28;20128;-70
2023/09/13 07:35:23;;;;;;;4.93;4.40;;;;;;;;;;4997682;28;20044;-71
2023/09/13 07:37:48;;;;;;;7.28;4.88;;;;;;;;;;4998310;28;20049;-70
2023/09/13 07:40:14;;;;;;;7.60;5.18;;;;;;;;;;4996294;28;20045;-70
2023/09/13 07:42:39;;;;;;;11.07;5.45;;;;;;;;;;4996962;28;20177;-70
2023/09/13 07:45:07;;;;;;;11.98;5.50;;;;;;;;;;4996888;28;20422;-70
2023/09/13 07:47:33;;;;;;;8.38;5.28;;;;;;;;;;4996252;28;20054;-71
2023/09/13 07:49:59;;;;;;;9.20;5.43;;;;;;;;;;4997521;28;20046;-70
2023/09/13 07:52:25;;;;;;;8.45;6.10;;;;;;;;;;4996535;28;20103;-70
2023/09/13 07:54:51;;;;;;;6.90;5.50;;;;;;;;;;4997956;28;20034;-71
2023/09/13 07:57:17;;;;;;;9.80;5.40;;;;;;;;;;4996279;28;20422;-71
2023/09/13 07:59:42;;;;;;;14.45;4.93;;;;;;;;;;4997210;28;20077;-71
2023/09/13 08:02:08;;;;;;;9.50;4.88;;;;;;;;;;4997551;28;20038;-75
2023/09/13 08:04:33;;;;;;;6.93;4.55;;;;;;;;;;5012201;28;20042;-75
2023/09/13 08:06:59;;;;;;;4.35;3.90;;;;;;;;;;4997722;28;20498;-75
2023/09/13 08:09:26;;;;;;;6.15;3.88;;;;;;;;;;5011931;28;20062;-75
2023/09/13 08:11:52;;;;;;;9.98;3.90;;;;;;;;;;4997473;28;20042;-75
2023/09/13 08:14:18;;;;;;;6.95;4.18;;;;;;;;;;4997005;28;20137;-75
2023/09/13 08:16:44;;;;;;;4.03;3.63;;;;;;;;;;4978813;28;20056;-74
2023/09/13 08:19:09;;;;;;;5.30;3.78;;;;;;;;;;4998026;28;20407;-74
2023/09/13 08:21:35;;;;;;;5.40;3.97;;;;;;;;;;4998945;28;20046;-75
2023/09/13 08:24:01;;;;;;;4.88;4.30;;;;;;;;;;5016146;28;20211;-74
2023/09/13 08:26:26;;;;;;;4.65;3.90;;;;;;;;;;4998646;28;20433;-75
2023/09/13 08:28:52;;;;;;;4.82;3.80;;;;;;;;;;5000792;28;20046;-75
2023/09/13 08:31:17;;;;;;;4.57;3.35;;;;;;;;;;5000019;28;20160;-74
2023/09/13 08:33:43;;;;;;;8.65;3.95;;;;;;;;;;4999687;28;20045;-75
2023/09/13 08:36:09;;;;;;;6.88;3.58;;;;;;;;;;5000063;28;20125;-75
2023/09/13 08:38:34;;;;;;;5.35;3.90;;;;;;;;;;5000325;28;20578;-73
2023/09/13 08:41:00;;;;;;;4.97;3.72;;;;;;;;;;5000984;28;20074;-72
2023/09/13 08:43:26;;;;;;;6.05;3.60;;;;;;;;;;4999799;28;20049;-72
2023/09/13 08:45:53;;;;;;;8.63;3.60;;;;;;;;;;5000312;28;20038;-72
2023/09/13 08:48:19;;;;;;;3.53;3.20;;;;;;;;;;4999723;28;20516;-72
2023/09/13 08:50:46;;;;;;;5.88;3.65;;;;;;;;;;4998237;28;20057;-72
2023/09/13 08:53:13;;;;;;;4.00;3.05;;;;;;;;;;4999118;28;20041;-72
2023/09/13 08:55:41;;;;;;;3.90;2.50;;;;;;;;;;4999441;28;20046;-73
2023/09/13 08:58:06;;;;;;;4.53;3.25;;;;;;;;;;4998606;28;20152;-71
2023/09/13 09:00:37;;;;;;;3.75;2.80;;;;;;;;;;4999506;28;20132;-71
2023/09/13 09:03:05;;;;;;;2.97;2.55;;;;;;;;;;5000546;28;20045;-71
2023/09/13 09:05:32;;;;;;;7.10;2.60;;;;;;;;;;4998633;28;20073;-71
2023/09/13 09:07:59;;;;;;;4.45;3.05;;;;;;;;;;4998845;28;20529;-71
2023/09/13 09:10:25;;;;;;;3.10;2.55;;;;;;;;;;4997845;28;20569;-70
2023/09/13 09:12:53;;;;;;;5.93;3.00;;;;;;;;;;4999348;28;20050;-70
2023/09/13 09:15:19;;;;;;;3.63;2.53;;;;;;;;;;4999360;28;20056;-71
2023/09/13 09:17:49;;;;;;;5.50;2.80;;;;;;;;;;4999211;28;20120;-71
2023/09/13 09:20:14;;;;;;;4.70;2.95;;;;;;;;;;5014766;28;20041;-71
2023/09/13 09:22:41;;;;;;;3.25;2.90;;;;;;;;;;4998919;28;20240;-70
2023/09/13 09:25:11;;;;;;;6.03;3.10;;;;;;;;;;4999638;28;20057;-70
2023/09/13 09:27:38;;;;;;;3.42;2.75;;;;;;;;;;4997710;28;20057;-70
2023/09/13 09:30:07;;;;;;;4.18;2.80;;;;;;;;;;4998866;28;20126;-70
2023/09/13 09:32:36;;;;;;;3.30;2.80;;;;;;;;;;4998355;28;20050;-73
2023/09/13 09:35:04;;;;;;;4.35;2.90;;;;;;;;;;4999530;28;20049;-71
2023/09/13 09:37:31;;;;;;;6.03;2.80;;;;;;;;;;4978802;28;20479;-71
2023/09/13 09:39:57;;;;;;;4.72;2.72;;;;;;;;;;4986837;28;20100;-73
2023/09/13 09:42:22;;;;;;;2.78;2.58;;;;;;;;;;4988149;28;20089;-70
2023/09/13 09:44:48;;;;;;;3.10;2.78;;;;;;;;;;4993007;28;20038;-70
2023/09/13 09:47:14;;;;;;;5.35;2.67;;;;;;;;;;4977734;28;20057;-71
2023/09/13 09:49:49;;;;;;;5.47;3.33;;;;;;;;;;4979065;28;20089;-70
2023/09/13 09:52:16;;;;;;;5.75;2.70;;;;;;;;;;4979277;28;20058;-70
2023/09/13 09:54:49;;;;;;;4.55;2.40;;;;;;;;;;4977378;28;20050;-72
2023/09/13 09:57:25;;;;;;;4.75;2.28;;;;;;;;;;4978968;28;20045;-72
2023/09/13 09:59:51;;;;;;;2.20;2.00;;;;;;;;;;4993609;28;20042;-70
2023/09/13 10:02:17;;;;;;;3.58;2.40;;;;;;;;;;4978672;28;21016;-74
2023/09/13 10:04:47;;;;;;;2.58;2.30;;;;;;;;;;4976896;28;20081;-74
2023/09/13 10:07:13;;;;;;;3.00;2.20;;;;;;;;;;4961498;28;20046;-73
2023/09/13 10:09:43;;;;;;;5.60;2.03;;;;;;;;;;4978548;28;20282;-72
2023/09/13 10:12:10;;;;;;;2.13;1.90;;;;;;;;;;4977759;28;20129;-73
2023/09/13 10:14:36;;;;;;;2.70;1.95;;;;;;;;;;4978038;28;20050;-73
2023/09/13 10:17:06;;;;;;;2.40;2.00;;;;;;;;;;4993925;28;20096;-74
2023/09/13 10:19:33;;;;;;;2.33;2.03;;;;;;;;;;4998082;28;20049;-74
2023/09/13 10:21:59;;;;;;;2.72;2.53;;;;;;;;;;4998835;28;20049;-75
2023/09/13 10:24:34;;;;;;;4.30;2.22;;;;;;;;;;4981180;28;20057;-76
2023/09/13 10:27:04;;;;;;;2.20;2.00;;;;;;;;;;4996309;28;20053;-76
2023/09/13 10:29:47;;;;;;;2.43;2.23;;;;;;;;;;4997905;28;20061;-75
2023/09/13 10:32:16;;;;;;;4.43;2.45;;;;;;;;;;4997594;28;20042;-74
2023/09/13 10:34:49;;;;;;;2.47;2.28;;;;;;;;;;4998197;28;20077;-75
2023/09/13 10:37:23;;;;;;;2.47;2.28;;;;;;;;;;4997382;28;20046;-75
2023/09/13 10:40:16;;;;;;;3.35;2.20;;;;;;;;;;4997581;28;20063;-76
2023/09/13 10:42:43;;;;;;;2.50;2.30;;;;;;;;;;4997406;28;20045;-74
2023/09/13 10:45:10;;;;;;;2.55;2.33;;;;;;;;;;4996385;28;20136;-75
2023/09/13 10:47:36;;;;;;;2.55;2.35;;;;;;;;;;4979222;28;20108;-75
2023/09/13 10:50:03;;;;;;;2.70;2.50;;;;;;;;;;4998259;28;20045;-75
2023/09/13 10:52:31;;;;;;;3.55;2.95;;;;;;;;;;4997879;28;20050;-71
2023/09/13 10:54:58;;;;;;;4.07;2.70;;;;;;;;;;4997685;28;20050;-73
2023/09/13 10:57:25;;;;;;;4.07;2.97;;;;;;;;;;4997315;28;20599;-71
2023/09/13 10:59:52;;;;;;;3.20;2.83;;;;;;;;;;4996967;28;20057;-72
2023/09/13 11:02:21;;;;;;;3.03;2.78;;;;;;;;;;4980060;28;20053;-72
2023/09/13 11:04:47;;;;;;;3.33;3.00;;;;;;;;;;4997778;28;20092;-72
2023/09/13 11:07:14;;;;;;;4.40;3.08;;;;;;;;;;4996782;28;20073;-73
2023/09/13 11:09:40;;;;;;;3.83;2.58;;;;;;;;;;4996962;28;20038;-72
2023/09/13 11:12:06;;;;;;;3.95;2.83;;;;;;;;;;4996762;28;20045;-72
2023/09/13 11:14:31;;;;;;;5.80;2.90;;;;;;;;;;4997996;28;20042;-73
2023/09/13 11:17:37;;;;;;;3.75;3.33;;;;;;;;;;4997181;28;20068;-73
2023/09/13 11:20:36;;;;;;;3.70;3.10;;;;;;;;;;4982506;28;20663;-73
2023/09/13 11:23:09;;;;;;;4.57;2.80;;;;;;;;;;4996302;28;20046;-71
2023/09/13 11:25:35;;;;;;;3.80;2.70;;;;;;;;;;4981137;28;20574;-72
2023/09/13 11:28:26;;;;;;;3.00;2.58;;;;;;;;;;5012745;28;20050;-72
2023/09/13 11:30:55;;;;;;;2.50;2.30;;;;;;;;;;4995771;28;20041;-72
2023/09/13 11:33:20;;;;;;;4.80;2.42;;;;;;;;;;4996733;28;20041;-72
2023/09/13 11:35:49;;;;;;;3.50;2.00;;;;;;;;;;4996711;28;20053;-71
2023/09/13 11:38:16;;;;;;;4.18;2.10;;;;;;;;;;4997796;28;20041;-73
2023/09/13 11:40:49;;;;;;;3.78;2.20;;;;;;;;;;4996950;28;20045;-73
2023/09/13 11:43:22;;;;;;;4.35;2.45;;;;;;;;;;4995712;28;20053;-72
2023/09/13 11:45:49;;;;;;;2.10;1.90;;;;;;;;;;4994752;28;20085;-73
2023/09/13 11:48:29;;;;;;;4.63;2.28;;;;;;;;;;4997373;28;20045;-73
2023/09/13 11:50:56;;;;;;;2.83;2.33;;;;;;;;;;4996856;28;20641;-72
2023/09/13 11:53:30;;;;;;;2.97;2.45;;;;;;;;;;4998546;28;20096;-74
2023/09/13 11:55:56;;;;;;;2.58;2.38;;;;;;;;;;4999478;28;20048;-71
2023/09/13 11:58:38;;;;;;;2.42;2.22;;;;;;;;;;5000392;28;20038;-72
2023/09/13 12:01:05;;;;;;;7.43;2.45;;;;;;;;;;5001420;28;20050;-71
2023/09/13 12:03:39;;;;;;;2.92;2.60;;;;;;;;;;5000598;28;20042;-71
2023/09/13 12:06:05;;;;;;;2.75;2.55;;;;;;;;;;5000624;28;20049;-71
2023/09/13 12:08:34;;;;;;;4.90;2.67;;;;;;;;;;5002135;28;20045;-71
2023/09/13 12:11:03;;;;;;;5.93;3.17;;;;;;;;;;5001067;28;20113;-71
2023/09/13 12:13:44;;;;;;;2.80;2.60;;;;;;;;;;5001323;28;20052;-71
2023/09/13 12:16:11;;;;;;;5.38;3.03;;;;;;;;;;5002061;28;20037;-71
2023/09/13 12:18:37;;;;;;;3.83;3.25;;;;;;;;;;5000011;28;20562;-70
2023/09/13 12:21:05;;;;;;;4.55;3.17;;;;;;;;;;5001412;28;20041;-73
2023/09/13 12:23:41;;;;;;;4.75;2.85;;;;;;;;;;5001239;28;20771;-72
2023/09/13 12:26:12;;;;;;;3.33;2.85;;;;;;;;;;5001636;28;20041;-72
2023/09/13 12:28:39;;;;;;;3.20;2.90;;;;;;;;;;5000136;28;20046;-71
2023/09/13 12:31:15;;;;;;;3.55;2.97;;;;;;;;;;5000428;28;20072;-72
2023/09/13 12:33:49;;;;;;;4.38;2.97;;;;;;;;;;4980417;28;20991;-73
2023/09/13 12:36:16;;;;;;;4.05;3.20;;;;;;;;;;5000846;28;20115;-72
2023/09/13 12:38:42;;;;;;;3.58;3.25;;;;;;;;;;4997213;28;20069;-72
2023/09/13 12:41:14;;;;;;;3.70;3.30;;;;;;;;;;4982071;28;20142;-71
2023/09/13 12:43:45;;;;;;;4.38;3.45;;;;;;;;;;5000089;28;20042;-71
2023/09/13 12:46:16;;;;;;;3.85;3.40;;;;;;;;;;5000652;28;20128;-72
2023/09/13 12:48:42;;;;;;;5.88;4.00;;;;;;;;;;4999277;28;20057;-71
2023/09/13 12:51:08;;;;;;;6.07;4.35;;;;;;;;;;4999685;28;20530;-71
2023/09/13 12:53:35;;;;;;;6.32;4.57;;;;;;;;;;4999768;28;20065;-72
2023/09/13 12:56:01;;;;;;;6.53;4.18;;;;;;;;;;4998871;28;20050;-70
2023/09/13 12:58:26;;;;;;;10.27;5.40;;;;;;;;;;5000181;28;20103;-69
2023/09/13 13:00:54;;;;;;;6.50;4.50;;;;;;;;;;4997058;28;20148;-69
2023/09/13 13:03:24;;;;;;;5.15;3.50;;;;;;;;;;4997333;28;20045;-70
2023/09/13 13:05:52;;;;;;;5.97;3.50;;;;;;;;;;4996600;28;20045;-70
2023/09/13 13:08:17;;;;;;;10.20;5.03;;;;;;;;;;4999574;28;20876;-71
2023/09/13 13:11:00;;;;;;;7.97;4.87;;;;;;;;;;4998336;28;20053;-71
2023/09/13 13:13:39;;;;;;;8.63;5.70;;;;;;;;;;4998570;28;20057;-69
2023/09/13 13:16:16;;;;;;;10.50;6.80;;;;;;;;;;4998878;28;20050;-69
2023/09/13 13:18:52;;;;;;;8.70;6.18;;;;;;;;;;4999319;28;20143;-69
2023/09/13 13:21:20;;;;;;;9.43;6.97;;;;;;;;;;5011361;28;20677;-70
2023/09/13 13:23:47;;;;;;;10.85;7.47;;;;;;;;;;4998662;28;20057;-69
2023/09/13 13:26:17;;;;;;;11.20;8.55;;;;;;;;;;4998151;28;20056;-72
2023/09/13 13:28:43;;;;;;;13.25;8.48;;;;;;;;;;4998345;28;20085;-71
2023/09/13 13:31:09;;;;;;;12.65;7.88;;;;;;;;;;4997460;28;20038;-71
2023/09/13 13:33:35;;;;;;;11.15;6.88;;;;;;;;;;4997717;28;20122;-70
2023/09/13 13:36:04;;;;;;;12.07;7.85;;;;;;;;;;4998418;28;20514;-70
2023/09/13 13:38:30;;;;;;;9.65;6.78;;;;;;;;;;4999255;28;20045;-71
2023/09/13 13:41:14;;;;;;;10.05;5.43;;;;;;;;;;4998019;28;20550;-71
2023/09/13 13:43:40;;;;;;;7.28;4.07;;;;;;;;;;4980581;28;20046;-71
2023/09/13 13:46:08;;;;;;;4.38;3.88;;;;;;;;;;4998395;28;20520;-71
2023/09/13 13:48:35;;;;;;;6.60;4.38;;;;;;;;;;4996556;28;20140;-71
2023/09/13 13:51:03;;;;;;;5.97;4.35;;;;;;;;;;4998171;28;20089;-73
2023/09/13 13:53:29;;;;;;;6.35;4.10;;;;;;;;;;4997615;28;20076;-72
2023/09/13 13:56:01;;;;;;;6.40;4.43;;;;;;;;;;4996846;28;20054;-72
2023/09/13 13:58:26;;;;;;;;;;;;;;;;;;5013932;28;20471;-72
2023/09/13 14:00:54;;;;;;;6.25;3.95;;;;;;;;;;4998327;28;19921;-71
2023/09/13 14:03:21;;;;;;;7.93;4.38;;;;;;;;;;4997413;28;20046;-70
2023/09/13 14:05:48;;;;;;;6.38;4.90;;;;;;;;;;4997160;28;21055;-70
2023/09/13 14:08:17;;;;;;;9.55;5.68;;;;;;;;;;4997034;28;20046;-70
2023/09/13 14:10:42;;;;;;;6.10;4.97;;;;;;;;;;4998360;28;20462;-70
2023/09/13 14:13:09;;;;;;;8.18;5.38;;;;;;;;;;4995485;28;20068;-73
2023/09/13 14:15:35;;;;;;;11.38;5.90;;;;;;;;;;4998303;28;20054;-71
2023/09/13 14:18:01;;;;;;;9.45;6.38;;;;;;;;;;4997417;28;20042;-71
2023/09/13 14:20:27;;;;;;;9.32;6.00;;;;;;;;;;4997435;28;20034;-71
2023/09/13 14:22:52;;;;;;;8.73;5.97;;;;;;;;;;4997891;28;20042;-71
2023/09/13 14:25:19;;;;;;;12.68;6.70;;;;;;;;;;4997174;28;20050;-70
2023/09/13 14:27:45;;;;;;;7.85;6.07;;;;;;;;;;4996229;28;21595;-70
2023/09/13 14:30:11;;;;;;;12.90;6.47;;;;;;;;;;4997345;28;20046;-72
2023/09/13 14:32:36;;;;;;;7.93;5.35;;;;;;;;;;4998248;28;20054;-69
2023/09/13 14:35:02;;;;;;;8.77;5.95;;;;;;;;;;4997598;28;20136;-69
2023/09/13 14:37:28;;;;;;;9.25;5.85;;;;;;;;;;4997363;28;20081;-71
2023/09/13 14:39:53;;;;;;;8.48;5.72;;;;;;;;;;4995380;28;20137;-69
2023/09/13 14:42:18;;;;;;;7.97;6.13;;;;;;;;;;4998671;28;20041;-70
2023/09/13 14:44:44;;;;;;;10.50;6.22;;;;;;;;;;4997911;28;20046;-70
2023/09/13 14:47:09;;;;;;;11.70;5.95;;;;;;;;;;4997007;28;20045;-70